createdAt,value
2022-09-06T00:00:58.485Z,20.33
2022-09-06T00:03:25.235Z,20.33
2022-09-06T00:05:51.656Z,20.36
2022-09-06T00:08:18.022Z,20.38
2022-09-06T00:10:44.360Z,20.38
2022-09-06T00:13:11.225Z,20.38
2022-09-06T00:15:37.796Z,20.31
2022-09-06T00:18:07.305Z,20.33
2022-09-06T00:20:37.552Z,20.30
2022-09-06T00:23:05.501Z,20.27
2022-09-06T00:25:32.381Z,20.18
2022-09-06T00:28:01.617Z,20.21
2022-09-06T00:30:29.672Z,20.18
2022-09-06T00:32:56.405Z,20.08
2022-09-06T00:35:24.319Z,20.09
2022-09-06T00:37:51.815Z,20.12
2022-09-06T00:40:18.448Z,20.07
2022-09-06T00:42:44.811Z,20.11
2022-09-06T00:45:11.841Z,20.10
2022-09-06T00:47:41.401Z,20.09
2022-09-06T00:50:10.094Z,20.08
2022-09-06T00:52:37.782Z,20.06
2022-09-06T00:55:04.605Z,19.99
2022-09-06T00:57:31.111Z,19.98
2022-09-06T00:59:59.389Z,20.04
2022-09-06T01:02:26.118Z,20.02
2022-09-06T01:04:53.516Z,19.99
2022-09-06T01:07:31.994Z,19.89
2022-09-06T01:10:17.150Z,19.92
2022-09-06T01:13:02.273Z,19.84
2022-09-06T01:15:52.758Z,19.86
2022-09-06T01:18:38.808Z,19.72
2022-09-06T01:21:20.740Z,19.60
2022-09-06T01:24:18.198Z,19.56
2022-09-06T01:27:11.766Z,19.50
2022-09-06T01:29:52.869Z,19.49
2022-09-06T01:32:41.150Z,19.50
2022-09-06T01:35:20.409Z,19.50
2022-09-06T01:37:47.393Z,19.50
2022-09-06T01:40:13.771Z,19.47
2022-09-06T01:42:41.394Z,19.41
2022-09-06T01:45:10.985Z,19.44
2022-09-06T01:47:47.103Z,19.41
2022-09-06T01:50:32.316Z,19.33
2022-09-06T01:53:41.997Z,19.25
2022-09-06T01:56:22.293Z,19.23
2022-09-06T01:59:00.760Z,19.19
2022-09-06T02:02:20.339Z,19.22
2022-09-06T02:04:55.685Z,19.10
2022-09-06T02:07:27.378Z,19.23
2022-09-06T02:09:58.591Z,19.18
2022-09-06T02:12:28.029Z,19.17
2022-09-06T02:15:02.248Z,19.22
2022-09-06T02:17:35.419Z,19.19
2022-09-06T02:20:27.052Z,19.16
2022-09-06T02:22:57.093Z,19.06
2022-09-06T02:25:29.828Z,19.10
2022-09-06T02:27:56.311Z,19.03
2022-09-06T02:30:23.286Z,19.04
2022-09-06T02:33:04.535Z,18.99
2022-09-06T02:35:31.082Z,18.90
2022-09-06T02:37:57.476Z,18.89
2022-09-06T02:40:24.325Z,18.89
2022-09-06T02:42:50.660Z,18.84
2022-09-06T02:45:17.025Z,18.92
2022-09-06T02:47:43.368Z,18.93
2022-09-06T02:50:09.827Z,18.93
2022-09-06T02:52:36.176Z,18.89
2022-09-06T02:55:02.606Z,18.96
2022-09-06T02:57:28.954Z,18.97
2022-09-06T02:59:55.311Z,18.97
2022-09-06T03:02:21.723Z,18.96
2022-09-06T03:04:48.113Z,18.95
2022-09-06T03:07:14.456Z,18.89
2022-09-06T03:09:40.776Z,18.81
2022-09-06T03:12:07.296Z,18.79
2022-09-06T03:14:33.632Z,18.83
2022-09-06T03:17:00.014Z,18.74
2022-09-06T03:19:26.433Z,18.65
2022-09-06T03:21:52.772Z,18.70
2022-09-06T03:24:19.091Z,18.60
2022-09-06T03:26:45.425Z,18.54
2022-09-06T03:29:11.773Z,18.60
2022-09-06T03:31:38.217Z,18.57
2022-09-06T03:34:07.997Z,18.58
2022-09-06T03:36:36.754Z,18.59
2022-09-06T03:39:03.217Z,18.62
2022-09-06T03:41:29.560Z,18.60
2022-09-06T03:43:55.905Z,18.59
2022-09-06T03:46:22.291Z,18.57
2022-09-06T03:48:48.652Z,18.48
2022-09-06T03:51:15.001Z,18.48
2022-09-06T03:53:41.361Z,18.53
2022-09-06T03:56:07.704Z,18.51
2022-09-06T03:58:34.047Z,18.54
2022-09-06T04:01:08.755Z,18.60
2022-09-06T04:03:36.400Z,18.56
2022-09-06T04:06:04.036Z,18.64
2022-09-06T04:08:30.779Z,18.62
2022-09-06T04:10:58.141Z,18.66
2022-09-06T04:13:26.120Z,18.62
2022-09-06T04:15:52.831Z,18.62
2022-09-06T04:18:20.559Z,18.68
2022-09-06T04:20:51.917Z,18.70
2022-09-06T04:23:19.398Z,18.72
2022-09-06T04:25:49.512Z,18.71
2022-09-06T04:28:16.722Z,18.70
2022-09-06T04:30:43.064Z,18.62
2022-09-06T04:33:09.433Z,18.60
2022-09-06T04:35:36.129Z,18.61
2022-09-06T04:38:03.829Z,18.61
2022-09-06T04:40:30.392Z,18.61
2022-09-06T04:42:56.808Z,18.56
2022-09-06T04:45:23.143Z,18.61
2022-09-06T04:47:49.507Z,18.61
2022-09-06T04:50:15.868Z,18.58
2022-09-06T04:52:42.192Z,18.50
2022-09-06T04:55:09.025Z,18.46
2022-09-06T04:57:35.354Z,18.45
2022-09-06T05:00:01.811Z,18.42
2022-09-06T05:02:28.202Z,18.39
2022-09-06T05:04:54.632Z,18.36
2022-09-06T05:07:20.993Z,18.29
2022-09-06T05:09:47.325Z,18.29
2022-09-06T05:12:13.680Z,18.33
2022-09-06T05:14:39.992Z,18.26
2022-09-06T05:17:06.381Z,18.23
2022-09-06T05:19:32.716Z,18.21
2022-09-06T05:21:59.058Z,18.16
2022-09-06T05:24:25.409Z,18.07
2022-09-06T05:26:51.732Z,18.06
2022-09-06T05:29:18.103Z,18.09
2022-09-06T05:31:44.483Z,18.06
2022-09-06T05:34:10.890Z,18.14
2022-09-06T05:36:37.306Z,18.05
2022-09-06T05:39:03.758Z,18.17
2022-09-06T05:41:30.106Z,18.16
2022-09-06T05:43:56.439Z,18.14
2022-09-06T05:46:22.769Z,18.14
2022-09-06T05:48:53.825Z,18.10
2022-09-06T05:51:20.222Z,18.14
2022-09-06T05:53:46.617Z,18.15
2022-09-06T05:56:14.293Z,18.21
2022-09-06T05:58:40.694Z,18.12
2022-09-06T06:01:14.502Z,18.16
2022-09-06T06:03:40.929Z,18.16
2022-09-06T06:06:07.356Z,18.27
2022-09-06T06:08:35.243Z,18.60
2022-09-06T06:11:02.189Z,19.14
2022-09-06T06:13:29.233Z,19.89
2022-09-06T06:15:56.208Z,20.43
2022-09-06T06:18:22.704Z,20.81
2022-09-06T06:20:49.132Z,21.08
2022-09-06T06:23:15.604Z,21.17
2022-09-06T06:25:41.959Z,21.20
2022-09-06T06:28:08.307Z,21.18
2022-09-06T06:30:34.708Z,21.35
2022-09-06T06:33:01.111Z,21.73
2022-09-06T06:35:27.478Z,22.17
2022-09-06T06:37:53.811Z,22.54
2022-09-06T06:40:20.157Z,22.93
2022-09-06T06:42:46.498Z,23.20
2022-09-06T06:45:12.877Z,23.53
2022-09-06T06:47:39.234Z,23.81
2022-09-06T06:50:06.176Z,24.06
2022-09-06T06:52:32.534Z,24.40
2022-09-06T06:54:58.890Z,24.66
2022-09-06T06:57:25.240Z,24.81
2022-09-06T06:59:51.569Z,24.77
2022-09-06T07:02:18.099Z,24.63
2022-09-06T07:04:44.528Z,24.56
2022-09-06T07:12:43.647Z,25.41
2022-09-06T07:15:10.149Z,25.94
2022-09-06T07:17:36.492Z,26.82
2022-09-06T07:20:18.400Z,27.71
2022-09-06T07:22:44.756Z,28.58
2022-09-06T07:25:12.806Z,29.27
2022-09-06T07:27:48.870Z,29.82
2022-09-06T07:30:16.185Z,30.14
2022-09-06T07:32:42.600Z,30.37
2022-09-06T07:35:09.223Z,30.57
2022-09-06T07:37:35.588Z,30.55
2022-09-06T07:40:03.244Z,30.66
2022-09-06T07:42:35.657Z,30.72
2022-09-06T07:45:03.383Z,31.13
2022-09-06T07:53:13.145Z,32.13
2022-09-06T07:55:43.962Z,32.15
2022-09-06T07:58:10.322Z,31.90
2022-09-06T08:00:36.764Z,31.68
2022-09-06T08:03:03.189Z,31.44
2022-09-06T08:11:02.952Z,31.83
2022-09-06T08:13:29.681Z,31.38
2022-09-06T08:16:00.292Z,31.76
2022-09-06T08:18:26.829Z,32.15
2022-09-06T08:20:53.208Z,32.04
2022-09-06T08:23:19.593Z,31.47
2022-09-06T08:25:56.233Z,31.25
2022-09-06T08:28:25.601Z,31.06
2022-09-06T08:30:54.553Z,30.88
2022-09-06T08:33:21.015Z,31.14
2022-09-06T08:35:58.484Z,31.47
2022-09-06T08:38:25.017Z,31.71
2022-09-06T08:40:53.682Z,31.74
2022-09-06T08:43:22.160Z,32.02
2022-09-06T08:45:55.864Z,31.87
2022-09-06T08:48:25.211Z,32.13
2022-09-06T08:51:07.430Z,32.08
2022-09-06T08:53:41.417Z,31.82
2022-09-06T08:56:31.897Z,32.13
2022-09-06T08:59:07.313Z,32.40
2022-09-06T09:01:48.919Z,32.50
2022-09-06T09:04:20.197Z,32.45
2022-09-06T09:06:50.507Z,32.54
2022-09-06T09:09:16.909Z,32.62
2022-09-06T09:11:47.233Z,32.89
2022-09-06T09:14:46.717Z,32.87
2022-09-06T09:17:19.365Z,32.93
2022-09-06T09:19:46.161Z,33.02
2022-09-06T09:22:17.037Z,32.69
2022-09-06T09:24:44.118Z,32.25
2022-09-06T09:27:11.546Z,31.93
2022-09-06T09:32:42.290Z,31.33
2022-09-06T09:35:21.117Z,31.26
2022-09-06T09:37:50.620Z,31.15
2022-09-06T09:40:24.485Z,31.22
2022-09-06T09:42:51.858Z,31.24
2022-09-06T09:45:30.310Z,31.02
2022-09-06T09:47:57.224Z,30.68
2022-09-06T09:50:31.132Z,30.34
2022-09-06T09:53:09.243Z,30.23
2022-09-06T09:55:36.169Z,30.04
2022-09-06T09:58:03.562Z,29.97
2022-09-06T10:00:39.196Z,29.86
2022-09-06T10:03:20.220Z,29.67
2022-09-06T10:06:02.653Z,29.74
2022-09-06T10:08:32.392Z,29.66
2022-09-06T10:10:58.968Z,29.60
2022-09-06T10:13:27.990Z,29.55
2022-09-06T10:15:54.392Z,29.33
2022-09-06T10:18:20.747Z,29.14
2022-09-06T10:20:53.804Z,29.12
2022-09-06T10:26:46.104Z,29.43
2022-09-06T10:29:13.121Z,29.56
2022-09-06T10:31:39.475Z,29.56
2022-09-06T10:34:33.576Z,29.61
2022-09-06T10:37:36.966Z,29.73
2022-09-06T10:40:08.433Z,29.73
2022-09-06T10:42:39.254Z,29.76
2022-09-06T10:45:27.565Z,29.58
2022-09-06T10:48:21.012Z,29.69
2022-09-06T10:51:12.329Z,29.71
2022-09-06T10:53:50.573Z,29.71
2022-09-06T10:56:39.717Z,29.78
2022-09-06T10:59:36.615Z,30.03
2022-09-06T11:02:13.041Z,30.15
2022-09-06T11:07:30.705Z,30.03
2022-09-06T11:10:18.642Z,29.82
2022-09-06T11:12:54.028Z,29.93
2022-09-06T11:15:22.624Z,30.02
2022-09-06T11:17:51.992Z,30.20
2022-09-06T11:20:31.382Z,30.33
2022-09-06T11:23:23.936Z,30.36
2022-09-06T11:26:28.953Z,30.34
2022-09-06T11:28:59.283Z,30.23
2022-09-06T11:34:31.561Z,30.23
2022-09-06T11:37:06.569Z,30.27
2022-09-06T11:42:43.965Z,30.40
2022-09-06T11:45:10.262Z,30.42
2022-09-06T11:47:45.345Z,30.52
2022-09-06T11:50:22.752Z,30.58
2022-09-06T11:52:55.014Z,30.72
2022-09-06T11:55:32.235Z,30.69
2022-09-06T11:58:01.723Z,30.80
2022-09-06T12:00:28.253Z,30.94
2022-09-06T12:02:54.875Z,30.97
2022-09-06T12:05:31.475Z,30.93
2022-09-06T12:08:22.844Z,30.90
2022-09-06T12:10:57.411Z,30.73
2022-09-06T12:13:47.213Z,30.53
2022-09-06T12:16:15.062Z,30.58
2022-09-06T12:18:47.392Z,30.58
2022-09-06T12:21:40.110Z,30.86
2022-09-06T12:24:35.315Z,31.29
2022-09-06T12:27:13.449Z,31.59
2022-09-06T12:29:40.125Z,31.76
2022-09-06T12:32:06.600Z,31.98
2022-09-06T12:34:37.830Z,31.79
2022-09-06T12:37:06.118Z,31.68
2022-09-06T12:39:33.771Z,31.55
2022-09-06T12:42:10.739Z,31.40
2022-09-06T12:44:41.593Z,31.21
2022-09-06T12:47:22.270Z,31.15
2022-09-06T12:50:05.976Z,31.04
2022-09-06T12:52:32.341Z,30.99
2022-09-06T12:54:58.815Z,31.07
2022-09-06T12:57:25.829Z,31.32
2022-09-06T12:59:54.842Z,31.46
2022-09-06T13:02:38.330Z,31.30
2022-09-06T13:05:08.513Z,31.10
2022-09-06T13:07:41.125Z,30.95
2022-09-06T13:10:08.480Z,31.03
2022-09-06T13:12:39.071Z,31.17
2022-09-06T13:15:11.880Z,31.50
2022-09-06T13:17:38.745Z,31.86
2022-09-06T13:20:23.154Z,32.24
2022-09-06T13:22:51.315Z,32.55
2022-09-06T13:25:20.988Z,32.56
2022-09-06T13:27:55.504Z,32.41
2022-09-06T13:30:40.850Z,32.32
2022-09-06T13:33:08.449Z,32.42
2022-09-06T13:35:37.540Z,32.57
2022-09-06T13:38:31.185Z,32.85
2022-09-06T13:41:16.517Z,33.05
2022-09-06T13:43:45.672Z,33.29
2022-09-06T13:46:12.035Z,33.38
2022-09-06T13:48:38.894Z,33.50
2022-09-06T13:51:09.612Z,33.50
2022-09-06T13:53:36.005Z,33.55
2022-09-06T13:56:03.241Z,33.42
2022-09-06T13:58:29.788Z,33.26
2022-09-06T14:00:56.705Z,33.09
2022-09-06T14:03:31.508Z,32.78
2022-09-06T14:05:58.490Z,32.69
2022-09-06T14:08:24.977Z,32.75
2022-09-06T14:10:52.184Z,32.89
2022-09-06T14:13:19.608Z,33.03
2022-09-06T14:15:47.216Z,33.13
2022-09-06T14:18:14.555Z,33.24
2022-09-06T14:20:41.588Z,33.28
2022-09-06T14:23:08.280Z,33.38
2022-09-06T14:25:36.392Z,33.24
2022-09-06T14:28:04.052Z,33.07
2022-09-06T14:30:30.972Z,32.81
2022-09-06T14:32:57.755Z,32.66
2022-09-06T14:35:24.486Z,32.54
2022-09-06T14:37:51.222Z,32.47
2022-09-06T14:40:17.609Z,32.43
2022-09-06T14:42:47.546Z,32.41
2022-09-06T14:45:16.331Z,32.31
2022-09-06T14:47:42.862Z,32.19
2022-09-06T14:50:09.564Z,32.07
2022-09-06T14:52:36.035Z,31.95
2022-09-06T14:55:02.552Z,31.91
2022-09-06T14:57:28.972Z,31.87
2022-09-06T14:59:55.567Z,31.74
2022-09-06T15:02:22.166Z,31.56
2022-09-06T15:04:48.580Z,31.38
2022-09-06T15:07:14.909Z,31.30
2022-09-06T15:09:41.283Z,31.29
2022-09-06T15:12:07.672Z,31.24
2022-09-06T15:14:34.017Z,31.20
2022-09-06T15:17:00.404Z,31.09
2022-09-06T15:19:29.176Z,30.99
2022-09-06T15:21:56.519Z,30.95
2022-09-06T15:24:24.317Z,30.94
2022-09-06T15:26:50.777Z,30.86
2022-09-06T15:29:17.238Z,30.70
2022-09-06T15:31:44.109Z,30.66
2022-09-06T15:34:10.567Z,30.53
2022-09-06T15:36:37.445Z,30.52
2022-09-06T15:39:05.339Z,30.44
2022-09-06T15:41:34.561Z,30.46
2022-09-06T15:44:05.982Z,30.52
2022-09-06T15:46:35.133Z,30.48
2022-09-06T15:49:03.973Z,30.39
2022-09-06T15:51:30.639Z,30.20
2022-09-06T15:53:58.593Z,30.02
2022-09-06T15:56:24.999Z,29.86
2022-09-06T15:58:51.372Z,29.63
2022-09-06T16:01:23.255Z,29.55
2022-09-06T16:03:55.472Z,29.52
2022-09-06T16:09:11.810Z,29.41
2022-09-06T16:11:38.143Z,29.32
2022-09-06T16:14:07.322Z,28.99
2022-09-06T16:16:34.408Z,28.75
2022-09-06T16:19:00.861Z,28.57
2022-09-06T16:21:29.633Z,28.40
2022-09-06T16:23:57.734Z,28.27
2022-09-06T16:26:26.252Z,28.13
2022-09-06T16:28:53.284Z,27.94
2022-09-06T16:31:20.999Z,27.76
2022-09-06T16:33:47.955Z,27.62
2022-09-06T16:36:14.770Z,27.47
2022-09-06T16:38:42.089Z,27.35
2022-09-06T16:41:24.105Z,27.25
2022-09-06T16:43:51.454Z,27.18
2022-09-06T16:46:18.727Z,27.05
2022-09-06T16:49:00.872Z,27.01
2022-09-06T16:51:28.451Z,26.95
2022-09-06T16:53:56.248Z,26.88
2022-09-06T16:56:25.627Z,26.80
2022-09-06T16:58:57.083Z,26.68
2022-09-06T17:01:25.066Z,26.58
2022-09-06T17:03:51.567Z,26.44
2022-09-06T17:06:19.083Z,26.48
2022-09-06T17:08:45.615Z,26.42
2022-09-06T17:11:17.305Z,26.35
2022-09-06T17:13:45.923Z,26.30
2022-09-06T17:16:13.190Z,26.25
2022-09-06T17:18:39.643Z,26.21
2022-09-06T17:21:06.152Z,26.15
2022-09-06T17:23:33.233Z,26.07
2022-09-06T17:25:59.640Z,25.94
2022-09-06T17:28:26.638Z,25.91
2022-09-06T17:30:53.455Z,25.73
2022-09-06T17:33:20.677Z,25.63
2022-09-06T17:35:47.705Z,25.57
2022-09-06T17:38:15.414Z,25.48
2022-09-06T17:40:42.031Z,25.35
2022-09-06T17:43:08.428Z,25.32
2022-09-06T17:45:39.226Z,25.32
2022-09-06T17:48:05.923Z,25.22
2022-09-06T17:50:34.224Z,25.13
2022-09-06T17:53:00.912Z,25.02
2022-09-06T17:55:28.580Z,24.94
2022-09-06T17:57:56.038Z,24.83
2022-09-06T18:00:23.865Z,24.77
2022-09-06T18:02:50.283Z,24.70
2022-09-06T18:05:17.406Z,24.64
2022-09-06T18:07:43.829Z,24.53
2022-09-06T18:10:10.253Z,24.43
2022-09-06T18:12:36.588Z,24.27
2022-09-06T18:15:03.110Z,24.15
2022-09-06T18:17:29.488Z,24.03
2022-09-06T18:19:56.352Z,23.89
2022-09-06T18:22:22.697Z,23.80
2022-09-06T18:24:49.148Z,23.69
2022-09-06T18:27:15.739Z,23.68
2022-09-06T18:29:42.561Z,23.58
2022-09-06T18:32:09.172Z,23.50
2022-09-06T18:34:35.741Z,23.50
2022-09-06T18:37:02.072Z,23.39
2022-09-06T18:39:28.517Z,23.26
2022-09-06T18:41:54.894Z,23.13
2022-09-06T18:44:21.404Z,23.01
2022-09-06T18:46:47.827Z,22.81
2022-09-06T18:49:14.669Z,22.78
2022-09-06T18:51:41.386Z,22.72
2022-09-06T18:54:08.170Z,22.67
2022-09-06T18:56:34.529Z,22.66
2022-09-06T18:59:01.185Z,22.76
2022-09-06T19:01:29.302Z,22.79
2022-09-06T19:03:57.341Z,22.75
2022-09-06T19:06:24.172Z,22.79
2022-09-06T19:08:50.661Z,22.72
2022-09-06T19:11:18.426Z,22.75
2022-09-06T19:13:46.757Z,22.71
2022-09-06T19:16:14.231Z,22.63
2022-09-06T19:21:11.240Z,22.40
2022-09-06T19:23:39.770Z,22.33
2022-09-06T19:26:09.493Z,22.27
2022-09-06T19:28:37.559Z,22.23
2022-09-06T19:31:09.280Z,22.22
2022-09-06T19:33:36.264Z,22.19
2022-09-06T19:36:11.682Z,22.15
2022-09-06T19:39:01.460Z,22.17
2022-09-06T19:41:26.292Z,22.19
2022-09-06T19:43:54.805Z,22.22
2022-09-06T19:46:22.003Z,22.24
2022-09-06T19:48:50.384Z,22.19
2022-09-06T19:51:18.201Z,22.06
2022-09-06T19:53:48.659Z,22.07
2022-09-06T19:56:17.090Z,22.00
2022-09-06T19:58:44.646Z,21.92
2022-09-06T20:01:13.907Z,21.86
2022-09-06T20:03:40.312Z,21.78
2022-09-06T20:06:07.623Z,21.71
2022-09-06T20:08:35.102Z,21.71
2022-09-06T20:11:03.015Z,21.62
2022-09-06T20:13:30.300Z,21.57
2022-09-06T20:15:57.091Z,21.55
2022-09-06T20:18:24.168Z,21.49
2022-09-06T20:20:55.386Z,21.56
2022-09-06T20:23:21.848Z,21.50
2022-09-06T20:26:03.224Z,21.39
2022-09-06T20:28:30.168Z,21.35
2022-09-06T20:31:11.581Z,21.29
2022-09-06T20:33:38.012Z,21.25
2022-09-06T20:36:07.137Z,21.18
2022-09-06T20:38:39.828Z,21.20
2022-09-06T20:41:07.656Z,21.16
2022-09-06T20:43:35.445Z,21.16
2022-09-06T20:46:22.924Z,21.22
2022-09-06T20:48:49.662Z,21.23
2022-09-06T20:51:18.378Z,21.19
2022-09-06T20:53:46.476Z,21.19
2022-09-06T20:56:15.802Z,21.17
2022-09-06T20:58:46.852Z,21.15
2022-09-06T21:01:14.483Z,21.15
2022-09-06T21:03:42.285Z,21.20
2022-09-06T21:06:10.180Z,21.24
2022-09-06T21:08:40.656Z,21.24
2022-09-06T21:11:08.198Z,21.25
2022-09-06T21:13:35.145Z,21.22
2022-09-06T21:16:02.172Z,21.14
2022-09-06T21:18:30.025Z,21.01
2022-09-06T21:20:59.557Z,20.90
2022-09-06T21:23:27.128Z,20.81
2022-09-06T21:25:53.418Z,20.71
2022-09-06T21:28:19.764Z,20.61
2022-09-06T21:30:46.117Z,20.51
2022-09-06T21:33:12.481Z,20.38
2022-09-06T21:35:38.837Z,20.26
2022-09-06T21:38:05.182Z,20.21
2022-09-06T21:40:34.722Z,20.21
2022-09-06T21:43:01.086Z,20.09
2022-09-06T21:45:27.437Z,20.00
2022-09-06T21:47:53.762Z,19.96
2022-09-06T21:50:20.128Z,19.87
2022-09-06T21:52:46.479Z,19.73
2022-09-06T21:55:15.546Z,19.69
2022-09-06T21:57:42.115Z,19.71
2022-09-06T22:00:08.911Z,19.67
2022-09-06T22:02:35.320Z,19.67
2022-09-06T22:05:01.714Z,19.59
2022-09-06T22:07:28.053Z,19.60
2022-09-06T22:09:54.374Z,19.45
2022-09-06T22:12:20.713Z,19.45
2022-09-06T22:14:47.046Z,19.44
2022-09-06T22:17:13.409Z,19.46
2022-09-06T22:19:39.781Z,19.43
2022-09-06T22:22:06.131Z,19.37
2022-09-06T22:24:32.840Z,19.42
2022-09-06T22:26:59.196Z,19.41
2022-09-06T22:29:25.624Z,19.42
2022-09-06T22:31:52.042Z,19.43
2022-09-06T22:34:18.513Z,19.39
2022-09-06T22:36:44.851Z,19.35
2022-09-06T22:39:11.179Z,19.45
2022-09-06T22:41:37.758Z,19.53
2022-09-06T22:44:05.027Z,19.54
2022-09-06T22:46:31.879Z,19.45
2022-09-06T22:48:58.891Z,19.56
2022-09-06T22:51:25.489Z,19.44
2022-09-06T22:53:51.869Z,19.51
2022-09-06T22:56:18.200Z,19.56
2022-09-06T22:58:44.549Z,19.48
2022-09-06T23:01:14.320Z,19.55
2022-09-06T23:03:41.347Z,19.55
2022-09-06T23:06:08.076Z,19.56
2022-09-06T23:08:37.020Z,19.58
2022-09-06T23:11:05.627Z,19.64
2022-09-06T23:13:32.110Z,19.63
2022-09-06T23:16:07.076Z,19.73
2022-09-06T23:18:33.905Z,19.78
2022-09-06T23:21:08.591Z,19.77
2022-09-06T23:23:35.933Z,19.73
2022-09-06T23:26:28.153Z,19.78
2022-09-06T23:28:54.993Z,19.75
2022-09-06T23:31:21.381Z,19.68
2022-09-06T23:33:52.021Z,19.69
2022-09-06T23:36:18.420Z,19.68
2022-09-06T23:38:44.780Z,19.62
2022-09-06T23:41:11.788Z,19.56
2022-09-06T23:43:40.007Z,19.38
2022-09-06T23:48:34.240Z,19.12
2022-09-06T23:51:00.780Z,19.07
2022-09-06T23:53:27.234Z,19.04
2022-09-06T23:55:53.793Z,19.01
2022-09-06T23:58:20.148Z,18.90
